sensor_id;sensor_type;location;lat;lon;timestamp;temperature;humidity
3226;DHT22;1625;49.884;8.666;2022-09-02T00:01:45;18.40;99.90
3226;DHT22;1625;49.884;8.666;2022-09-02T00:04:18;18.40;99.90
3226;DHT22;1625;49.884;8.666;2022-09-02T00:06:45;18.20;99.90
3226;DHT22;1625;49.884;8.666;2022-09-02T00:09:13;18.30;99.90
3226;DHT22;1625;49.884;8.666;2022-09-02T00:11:40;18.20;99.90
3226;DHT22;1625;49.884;8.666;2022-09-02T00:14:10;18.10;99.90
3226;DHT22;1625;49.884;8.666;2022-09-02T00:16:37;18.10;99.90
3226;DHT22;1625;49.884;8.666;2022-09-02T00:19:03;18.00;99.90
3226;DHT22;1625;49.884;8.666;2022-09-02T00:21:31;18.00;99.90
3226;DHT22;1625;49.884;8.666;2022-09-02T00:23:59;18.00;99.90
3226;DHT22;1625;49.884;8.666;2022-09-02T00:26:24;18.00;99.90
3226;DHT22;1625;49.884;8.666;2022-09-02T00:28:50;18.00;99.90
3226;DHT22;1625;49.884;8.666;2022-09-02T00:31:16;18.10;99.90
3226;DHT22;1625;49.884;8.666;2022-09-02T00:33:41;18.00;99.90
3226;DHT22;1625;49.884;8.666;2022-09-02T00:36:07;18.00;99.90
3226;DHT22;1625;49.884;8.666;2022-09-02T00:38:34;18.00;99.90
3226;DHT22;1625;49.884;8.666;2022-09-02T00:41:04;18.00;99.90
3226;DHT22;1625;49.884;8.666;2022-09-02T00:43:52;18.00;99.90
3226;DHT22;1625;49.884;8.666;2022-09-02T00:46:22;18.00;99.90
3226;DHT22;1625;49.884;8.666;2022-09-02T00:49:20;17.90;99.90
3226;DHT22;1625;49.884;8.666;2022-09-02T00:51:54;18.00;99.90
3226;DHT22;1625;49.884;8.666;2022-09-02T00:54:23;17.90;99.90
3226;DHT22;1625;49.884;8.666;2022-09-02T00:56:50;17.90;99.90
3226;DHT22;1625;49.884;8.666;2022-09-02T00:59:35;17.90;99.90
3226;DHT22;1625;49.884;8.666;2022-09-02T01:02:05;17.90;99.90
3226;DHT22;1625;49.884;8.666;2022-09-02T01:04:32;17.90;99.90
3226;DHT22;1625;49.884;8.666;2022-09-02T01:06:58;17.80;99.90
3226;DHT22;1625;49.884;8.666;2022-09-02T01:09:23;17.80;99.90
3226;DHT22;1625;49.884;8.666;2022-09-02T01:11:49;17.80;99.90
3226;DHT22;1625;49.884;8.666;2022-09-02T01:14:18;17.80;99.90
3226;DHT22;1625;49.884;8.666;2022-09-02T01:16:47;17.80;99.90
3226;DHT22;1625;49.884;8.666;2022-09-02T01:19:39;17.70;99.90
3226;DHT22;1625;49.884;8.666;2022-09-02T01:22:17;17.70;99.90
3226;DHT22;1625;49.884;8.666;2022-09-02T01:24:43;17.70;99.90
3226;DHT22;1625;49.884;8.666;2022-09-02T01:27:16;17.70;99.90
3226;DHT22;1625;49.884;8.666;2022-09-02T01:29:43;17.70;99.90
3226;DHT22;1625;49.884;8.666;2022-09-02T01:32:09;17.60;99.90
3226;DHT22;1625;49.884;8.666;2022-09-02T01:34:35;17.70;99.90
3226;DHT22;1625;49.884;8.666;2022-09-02T01:37:00;17.60;99.90
3226;DHT22;1625;49.884;8.666;2022-09-02T01:39:26;17.70;99.90
3226;DHT22;1625;49.884;8.666;2022-09-02T01:41:52;17.60;99.90
3226;DHT22;1625;49.884;8.666;2022-09-02T01:44:17;17.60;99.90
3226;DHT22;1625;49.884;8.666;2022-09-02T01:46:43;17.60;99.90
3226;DHT22;1625;49.884;8.666;2022-09-02T01:49:09;17.60;99.90
3226;DHT22;1625;49.884;8.666;2022-09-02T01:51:35;17.60;99.90
3226;DHT22;1625;49.884;8.666;2022-09-02T01:54:00;17.60;99.90
3226;DHT22;1625;49.884;8.666;2022-09-02T01:56:26;17.50;99.90
3226;DHT22;1625;49.884;8.666;2022-09-02T01:58:51;17.40;99.90
3226;DHT22;1625;49.884;8.666;2022-09-02T02:01:17;17.20;99.90
3226;DHT22;1625;49.884;8.666;2022-09-02T02:03:43;17.00;99.90
3226;DHT22;1625;49.884;8.666;2022-09-02T02:06:11;16.90;99.90
3226;DHT22;1625;49.884;8.666;2022-09-02T02:08:37;16.90;99.90
3226;DHT22;1625;49.884;8.666;2022-09-02T02:11:03;16.90;99.90
3226;DHT22;1625;49.884;8.666;2022-09-02T02:13:29;16.80;99.90
3226;DHT22;1625;49.884;8.666;2022-09-02T02:15:55;16.80;99.90
3226;DHT22;1625;49.884;8.666;2022-09-02T02:18:20;16.80;99.90
3226;DHT22;1625;49.884;8.666;2022-09-02T02:20:46;16.70;99.90
3226;DHT22;1625;49.884;8.666;2022-09-02T02:23:12;16.70;99.90
3226;DHT22;1625;49.884;8.666;2022-09-02T02:25:38;16.70;99.90
3226;DHT22;1625;49.884;8.666;2022-09-02T02:28:03;16.50;99.90
3226;DHT22;1625;49.884;8.666;2022-09-02T02:30:30;16.50;99.90
3226;DHT22;1625;49.884;8.666;2022-09-02T02:32:56;16.50;99.90
3226;DHT22;1625;49.884;8.666;2022-09-02T02:35:21;16.50;99.90
3226;DHT22;1625;49.884;8.666;2022-09-02T02:37:47;16.50;99.90
3226;DHT22;1625;49.884;8.666;2022-09-02T02:40:17;16.40;99.90
3226;DHT22;1625;49.884;8.666;2022-09-02T02:42:45;16.40;99.90
3226;DHT22;1625;49.884;8.666;2022-09-02T02:45:11;16.40;99.90
3226;DHT22;1625;49.884;8.666;2022-09-02T02:47:41;16.40;99.90
3226;DHT22;1625;49.884;8.666;2022-09-02T02:50:09;16.40;99.90
3226;DHT22;1625;49.884;8.666;2022-09-02T02:52:37;16.30;99.90
3226;DHT22;1625;49.884;8.666;2022-09-02T02:55:03;16.20;99.90
3226;DHT22;1625;49.884;8.666;2022-09-02T02:57:31;16.20;99.90
3226;DHT22;1625;49.884;8.666;2022-09-02T02:59:56;16.10;99.90
3226;DHT22;1625;49.884;8.666;2022-09-02T03:02:22;16.20;99.90
3226;DHT22;1625;49.884;8.666;2022-09-02T03:04:48;16.20;99.90
3226;DHT22;1625;49.884;8.666;2022-09-02T03:07:18;16.10;99.90
3226;DHT22;1625;49.884;8.666;2022-09-02T03:09:44;16.10;99.90
3226;DHT22;1625;49.884;8.666;2022-09-02T03:12:09;16.10;99.90
3226;DHT22;1625;49.884;8.666;2022-09-02T03:14:35;16.10;99.90
3226;DHT22;1625;49.884;8.666;2022-09-02T03:17:02;16.10;99.90
3226;DHT22;1625;49.884;8.666;2022-09-02T03:19:28;16.10;99.90
3226;DHT22;1625;49.884;8.666;2022-09-02T03:21:53;16.00;99.90
3226;DHT22;1625;49.884;8.666;2022-09-02T03:24:19;16.00;99.90
3226;DHT22;1625;49.884;8.666;2022-09-02T03:26:45;15.90;99.90
3226;DHT22;1625;49.884;8.666;2022-09-02T03:29:11;15.80;99.90
3226;DHT22;1625;49.884;8.666;2022-09-02T03:31:36;15.70;99.90
3226;DHT22;1625;49.884;8.666;2022-09-02T03:34:02;15.70;99.90
3226;DHT22;1625;49.884;8.666;2022-09-02T03:36:32;15.70;99.90
3226;DHT22;1625;49.884;8.666;2022-09-02T03:38:59;15.80;99.90
3226;DHT22;1625;49.884;8.666;2022-09-02T03:41:25;15.80;99.90
3226;DHT22;1625;49.884;8.666;2022-09-02T03:43:51;15.70;99.90
3226;DHT22;1625;49.884;8.666;2022-09-02T05:25:22;15.70;99.90
3226;DHT22;1625;49.884;8.666;2022-09-02T05:29:03;15.80;99.90
3226;DHT22;1625;49.884;8.666;2022-09-02T05:49:27;16.00;99.90
3226;DHT22;1625;49.884;8.666;2022-09-02T05:51:55;16.00;99.90
3226;DHT22;1625;49.884;8.666;2022-09-02T05:56:58;16.10;99.90
3226;DHT22;1625;49.884;8.666;2022-09-02T05:59:26;16.10;99.90
3226;DHT22;1625;49.884;8.666;2022-09-02T06:01:55;16.10;99.90
3226;DHT22;1625;49.884;8.666;2022-09-02T06:04:26;16.10;99.90
3226;DHT22;1625;49.884;8.666;2022-09-02T07:23:32;17.80;99.90
3226;DHT22;1625;49.884;8.666;2022-09-02T07:25:58;17.90;99.90
3226;DHT22;1625;49.884;8.666;2022-09-02T07:28:23;18.00;99.90
3226;DHT22;1625;49.884;8.666;2022-09-02T07:30:49;18.00;99.90
3226;DHT22;1625;49.884;8.666;2022-09-02T07:33:18;18.00;99.90
3226;DHT22;1625;49.884;8.666;2022-09-02T07:35:45;18.10;99.90
3226;DHT22;1625;49.884;8.666;2022-09-02T07:38:11;18.10;99.90
3226;DHT22;1625;49.884;8.666;2022-09-02T07:40:38;18.20;99.90
3226;DHT22;1625;49.884;8.666;2022-09-02T07:43:06;18.30;99.90
3226;DHT22;1625;49.884;8.666;2022-09-02T07:45:33;18.40;99.90
3226;DHT22;1625;49.884;8.666;2022-09-02T07:47:59;18.40;99.90
3226;DHT22;1625;49.884;8.666;2022-09-02T07:50:25;18.40;99.90
3226;DHT22;1625;49.884;8.666;2022-09-02T07:52:53;18.50;99.90
3226;DHT22;1625;49.884;8.666;2022-09-02T07:55:20;18.50;99.90
3226;DHT22;1625;49.884;8.666;2022-09-02T07:57:46;18.50;99.90
3226;DHT22;1625;49.884;8.666;2022-09-02T08:00:13;18.60;99.90
3226;DHT22;1625;49.884;8.666;2022-09-02T08:02:41;18.70;99.90
3226;DHT22;1625;49.884;8.666;2022-09-02T08:05:07;18.70;99.90
3226;DHT22;1625;49.884;8.666;2022-09-02T08:07:32;18.80;99.90
3226;DHT22;1625;49.884;8.666;2022-09-02T08:09:58;18.90;99.90
3226;DHT22;1625;49.884;8.666;2022-09-02T08:12:26;18.90;99.90
3226;DHT22;1625;49.884;8.666;2022-09-02T08:14:52;19.00;99.90
3226;DHT22;1625;49.884;8.666;2022-09-02T08:17:18;19.10;99.90
3226;DHT22;1625;49.884;8.666;2022-09-02T08:19:43;19.20;99.90
3226;DHT22;1625;49.884;8.666;2022-09-02T08:22:09;19.20;99.90
3226;DHT22;1625;49.884;8.666;2022-09-02T08:24:34;19.30;99.90
3226;DHT22;1625;49.884;8.666;2022-09-02T08:27:00;19.40;99.90
3226;DHT22;1625;49.884;8.666;2022-09-02T08:29:26;19.40;99.90
3226;DHT22;1625;49.884;8.666;2022-09-02T08:31:51;19.50;99.90
3226;DHT22;1625;49.884;8.666;2022-09-02T08:34:17;19.50;99.90
3226;DHT22;1625;49.884;8.666;2022-09-02T08:36:43;19.60;99.90
3226;DHT22;1625;49.884;8.666;2022-09-02T08:39:10;19.70;99.90
3226;DHT22;1625;49.884;8.666;2022-09-02T08:44:14;19.70;99.90
3226;DHT22;1625;49.884;8.666;2022-09-02T08:46:42;19.80;99.90
3226;DHT22;1625;49.884;8.666;2022-09-02T08:49:20;19.80;99.90
3226;DHT22;1625;49.884;8.666;2022-09-02T08:51:50;19.90;99.90
3226;DHT22;1625;49.884;8.666;2022-09-02T08:54:36;20.00;99.90
3226;DHT22;1625;49.884;8.666;2022-09-02T08:57:07;20.00;99.90
3226;DHT22;1625;49.884;8.666;2022-09-02T08:59:35;20.10;99.90
3226;DHT22;1625;49.884;8.666;2022-09-02T09:02:26;20.10;99.90
3226;DHT22;1625;49.884;8.666;2022-09-02T09:05:18;20.20;99.90
3226;DHT22;1625;49.884;8.666;2022-09-02T09:11:02;20.30;99.90
3226;DHT22;1625;49.884;8.666;2022-09-02T09:16:30;20.40;99.90
3226;DHT22;1625;49.884;8.666;2022-09-02T09:19:19;20.50;99.90
3226;DHT22;1625;49.884;8.666;2022-09-02T09:21:46;20.60;99.90
3226;DHT22;1625;49.884;8.666;2022-09-02T09:24:27;20.60;99.90
3226;DHT22;1625;49.884;8.666;2022-09-02T09:26:55;20.60;99.90
3226;DHT22;1625;49.884;8.666;2022-09-02T09:29:20;20.70;99.90
3226;DHT22;1625;49.884;8.666;2022-09-02T09:31:57;20.70;99.90
3226;DHT22;1625;49.884;8.666;2022-09-02T09:34:24;20.80;99.90
3226;DHT22;1625;49.884;8.666;2022-09-02T09:37:10;20.90;99.90
3226;DHT22;1625;49.884;8.666;2022-09-02T09:39:35;20.90;99.90
3226;DHT22;1625;49.884;8.666;2022-09-02T09:42:03;20.90;99.90
3226;DHT22;1625;49.884;8.666;2022-09-02T09:44:42;20.90;99.90
3226;DHT22;1625;49.884;8.666;2022-09-02T09:47:17;21.00;99.90
3226;DHT22;1625;49.884;8.666;2022-09-02T09:49:49;21.00;99.90
3226;DHT22;1625;49.884;8.666;2022-09-02T09:52:41;21.00;99.90
3226;DHT22;1625;49.884;8.666;2022-09-02T09:55:19;21.10;99.90
3226;DHT22;1625;49.884;8.666;2022-09-02T09:57:47;21.10;99.90
3226;DHT22;1625;49.884;8.666;2022-09-02T10:00:33;21.20;99.90
3226;DHT22;1625;49.884;8.666;2022-09-02T10:03:01;21.20;99.90
3226;DHT22;1625;49.884;8.666;2022-09-02T10:05:34;21.30;99.90
3226;DHT22;1625;49.884;8.666;2022-09-02T10:08:03;21.40;99.90
3226;DHT22;1625;49.884;8.666;2022-09-02T10:10:31;21.40;99.90
3226;DHT22;1625;49.884;8.666;2022-09-02T10:13:01;21.40;99.90
3226;DHT22;1625;49.884;8.666;2022-09-02T10:18:53;21.60;99.90
3226;DHT22;1625;49.884;8.666;2022-09-02T10:21:50;21.60;99.90
3226;DHT22;1625;49.884;8.666;2022-09-02T10:27:15;21.70;98.90
3226;DHT22;1625;49.884;8.666;2022-09-02T10:32:35;21.90;97.90
3226;DHT22;1625;49.884;8.666;2022-09-02T10:35:13;22.00;98.00
3226;DHT22;1625;49.884;8.666;2022-09-02T10:40:22;22.00;96.30
3226;DHT22;1625;49.884;8.666;2022-09-02T10:45:44;22.10;95.30
3226;DHT22;1625;49.884;8.666;2022-09-02T10:50:47;22.10;95.80
3226;DHT22;1625;49.884;8.666;2022-09-02T10:56:22;22.30;94.70
3226;DHT22;1625;49.884;8.666;2022-09-02T10:58:54;22.40;94.60
3226;DHT22;1625;49.884;8.666;2022-09-02T11:01:25;22.40;94.50
3226;DHT22;1625;49.884;8.666;2022-09-02T11:06:49;22.50;94.80
3226;DHT22;1625;49.884;8.666;2022-09-02T11:09:35;22.60;94.70
3226;DHT22;1625;49.884;8.666;2022-09-02T11:12:15;22.70;94.40
3226;DHT22;1625;49.884;8.666;2022-09-02T11:15:05;22.90;94.30
3226;DHT22;1625;49.884;8.666;2022-09-02T11:17:55;23.00;94.20
3226;DHT22;1625;49.884;8.666;2022-09-02T11:20:32;22.70;93.60
3226;DHT22;1625;49.884;8.666;2022-09-02T11:23:05;22.60;93.30
3226;DHT22;1625;49.884;8.666;2022-09-02T11:25:39;22.50;92.80
3226;DHT22;1625;49.884;8.666;2022-09-02T11:28:22;22.60;93.30
3226;DHT22;1625;49.884;8.666;2022-09-02T11:36:18;22.90;92.60
3226;DHT22;1625;49.884;8.666;2022-09-02T11:39:28;22.90;92.90
3226;DHT22;1625;49.884;8.666;2022-09-02T11:45:07;23.00;92.00
3226;DHT22;1625;49.884;8.666;2022-09-02T11:50:29;23.10;90.50
3226;DHT22;1625;49.884;8.666;2022-09-02T11:56:17;23.10;90.70
3226;DHT22;1625;49.884;8.666;2022-09-02T11:58:48;23.10;90.70
3226;DHT22;1625;49.884;8.666;2022-09-02T12:01:32;23.20;89.70
3226;DHT22;1625;49.884;8.666;2022-09-02T12:04:27;23.30;90.00
3226;DHT22;1625;49.884;8.666;2022-09-02T12:07:20;23.40;90.30
3226;DHT22;1625;49.884;8.666;2022-09-02T12:09:52;23.50;89.20
3226;DHT22;1625;49.884;8.666;2022-09-02T12:15:16;23.50;87.80
3226;DHT22;1625;49.884;8.666;2022-09-02T12:23:07;23.80;87.20
3226;DHT22;1625;49.884;8.666;2022-09-02T12:25:55;23.80;87.10
3226;DHT22;1625;49.884;8.666;2022-09-02T12:28:29;23.80;87.00
3226;DHT22;1625;49.884;8.666;2022-09-02T12:33:32;23.70;85.80
3226;DHT22;1625;49.884;8.666;2022-09-02T12:35:59;23.80;85.40
3226;DHT22;1625;49.884;8.666;2022-09-02T12:38:34;23.90;83.30
3226;DHT22;1625;49.884;8.666;2022-09-02T12:51:57;24.00;82.70
3226;DHT22;1625;49.884;8.666;2022-09-02T12:54:49;24.10;83.30
3226;DHT22;1625;49.884;8.666;2022-09-02T12:57:16;24.10;82.70
3226;DHT22;1625;49.884;8.666;2022-09-02T12:59:44;24.10;83.60
3226;DHT22;1625;49.884;8.666;2022-09-02T13:05:32;24.30;84.40
3226;DHT22;1625;49.884;8.666;2022-09-02T13:16:36;24.40;83.40
3226;DHT22;1625;49.884;8.666;2022-09-02T13:21:43;24.50;83.50
3226;DHT22;1625;49.884;8.666;2022-09-02T13:30:03;24.60;81.80
3226;DHT22;1625;49.884;8.666;2022-09-02T13:32:31;24.60;82.30
3226;DHT22;1625;49.884;8.666;2022-09-02T13:35:02;24.60;82.80
3226;DHT22;1625;49.884;8.666;2022-09-02T13:37:38;24.60;82.70
3226;DHT22;1625;49.884;8.666;2022-09-02T13:40:29;24.60;82.00
3226;DHT22;1625;49.884;8.666;2022-09-02T13:45:37;24.60;81.10
3226;DHT22;1625;49.884;8.666;2022-09-02T13:48:24;24.60;80.50
3226;DHT22;1625;49.884;8.666;2022-09-02T13:50:51;24.50;80.40
3226;DHT22;1625;49.884;8.666;2022-09-02T13:53:33;24.50;80.40
3226;DHT22;1625;49.884;8.666;2022-09-02T13:56:00;24.50;80.10
3226;DHT22;1625;49.884;8.666;2022-09-02T14:00:57;24.40;79.80
3226;DHT22;1625;49.884;8.666;2022-09-02T14:03:23;24.40;79.10
3226;DHT22;1625;49.884;8.666;2022-09-02T14:05:51;24.40;78.70
3226;DHT22;1625;49.884;8.666;2022-09-02T14:08:25;24.40;79.20
3226;DHT22;1625;49.884;8.666;2022-09-02T14:10:53;24.50;78.80
3226;DHT22;1625;49.884;8.666;2022-09-02T14:23:48;24.60;79.20
3226;DHT22;1625;49.884;8.666;2022-09-02T14:26:23;24.60;77.00
3226;DHT22;1625;49.884;8.666;2022-09-02T14:28:53;24.60;77.70
3226;DHT22;1625;49.884;8.666;2022-09-02T14:31:27;24.60;76.40
3226;DHT22;1625;49.884;8.666;2022-09-02T14:33:56;24.70;76.50
3226;DHT22;1625;49.884;8.666;2022-09-02T14:38:52;24.90;76.70
3226;DHT22;1625;49.884;8.666;2022-09-02T14:41:34;24.90;76.10
3226;DHT22;1625;49.884;8.666;2022-09-02T14:44:22;25.30;76.80
3226;DHT22;1625;49.884;8.666;2022-09-02T14:46:54;25.80;75.30
3226;DHT22;1625;49.884;8.666;2022-09-02T14:49:33;26.70;73.80
3226;DHT22;1625;49.884;8.666;2022-09-02T14:52:02;28.10;73.40
3226;DHT22;1625;49.884;8.666;2022-09-02T14:54:38;28.10;71.10
3226;DHT22;1625;49.884;8.666;2022-09-02T14:57:27;28.80;70.80
3226;DHT22;1625;49.884;8.666;2022-09-02T14:59:56;31.30;67.30
3226;DHT22;1625;49.884;8.666;2022-09-02T15:04:54;31.70;62.10
3226;DHT22;1625;49.884;8.666;2022-09-02T15:07:20;30.70;62.40
3226;DHT22;1625;49.884;8.666;2022-09-02T15:09:45;29.80;63.10
3226;DHT22;1625;49.884;8.666;2022-09-02T15:12:15;29.20;63.30
3226;DHT22;1625;49.884;8.666;2022-09-02T15:14:44;29.00;63.40
3226;DHT22;1625;49.884;8.666;2022-09-02T15:17:13;28.50;63.30
3226;DHT22;1625;49.884;8.666;2022-09-02T15:19:38;29.00;64.30
3226;DHT22;1625;49.884;8.666;2022-09-02T15:22:04;29.50;61.80
3226;DHT22;1625;49.884;8.666;2022-09-02T15:24:30;29.70;62.10
3226;DHT22;1625;49.884;8.666;2022-09-02T15:26:55;29.30;59.80
3226;DHT22;1625;49.884;8.666;2022-09-02T15:29:21;28.80;61.10
3226;DHT22;1625;49.884;8.666;2022-09-02T15:31:50;28.40;60.30
3226;DHT22;1625;49.884;8.666;2022-09-02T15:34:15;28.30;61.50
3226;DHT22;1625;49.884;8.666;2022-09-02T15:36:41;29.70;61.20
3226;DHT22;1625;49.884;8.666;2022-09-02T15:39:07;31.30;59.20
3226;DHT22;1625;49.884;8.666;2022-09-02T15:41:32;31.60;58.60
3226;DHT22;1625;49.884;8.666;2022-09-02T15:43:59;31.40;57.70
3226;DHT22;1625;49.884;8.666;2022-09-02T15:46:29;30.30;58.20
3226;DHT22;1625;49.884;8.666;2022-09-02T15:48:59;29.20;58.10
3226;DHT22;1625;49.884;8.666;2022-09-02T15:51:25;28.20;58.10
3226;DHT22;1625;49.884;8.666;2022-09-02T15:54:02;30.30;59.50
3226;DHT22;1625;49.884;8.666;2022-09-02T15:56:31;30.10;58.40
3226;DHT22;1625;49.884;8.666;2022-09-02T15:58:59;28.80;58.80
3226;DHT22;1625;49.884;8.666;2022-09-02T16:01:33;27.80;59.50
3226;DHT22;1625;49.884;8.666;2022-09-02T16:04:00;26.80;60.80
3226;DHT22;1625;49.884;8.666;2022-09-02T16:06:29;26.00;63.50
3226;DHT22;1625;49.884;8.666;2022-09-02T16:08:58;25.60;64.40
3226;DHT22;1625;49.884;8.666;2022-09-02T16:11:26;25.30;64.70
3226;DHT22;1625;49.884;8.666;2022-09-02T16:13:52;25.10;65.50
3226;DHT22;1625;49.884;8.666;2022-09-02T16:16:21;25.00;66.20
3226;DHT22;1625;49.884;8.666;2022-09-02T16:18:56;24.90;67.20
3226;DHT22;1625;49.884;8.666;2022-09-02T16:21:25;24.70;67.10
3226;DHT22;1625;49.884;8.666;2022-09-02T16:23:54;24.70;67.70
3226;DHT22;1625;49.884;8.666;2022-09-02T16:26:30;24.60;67.50
3226;DHT22;1625;49.884;8.666;2022-09-02T16:29:02;24.60;67.20
3226;DHT22;1625;49.884;8.666;2022-09-02T16:31:33;24.50;68.30
3226;DHT22;1625;49.884;8.666;2022-09-02T16:34:08;24.40;67.80
3226;DHT22;1625;49.884;8.666;2022-09-02T16:36:41;24.40;67.40
3226;DHT22;1625;49.884;8.666;2022-09-02T16:39:08;24.30;67.40
3226;DHT22;1625;49.884;8.666;2022-09-02T16:41:39;24.20;67.70
3226;DHT22;1625;49.884;8.666;2022-09-02T16:44:14;24.20;68.60
3226;DHT22;1625;49.884;8.666;2022-09-02T16:46:48;24.10;69.10
3226;DHT22;1625;49.884;8.666;2022-09-02T16:49:28;24.10;68.60
3226;DHT22;1625;49.884;8.666;2022-09-02T16:52:00;24.00;69.80
3226;DHT22;1625;49.884;8.666;2022-09-02T16:54:28;24.00;69.60
3226;DHT22;1625;49.884;8.666;2022-09-02T16:56:57;24.00;69.30
3226;DHT22;1625;49.884;8.666;2022-09-02T16:59:23;24.00;69.20
3226;DHT22;1625;49.884;8.666;2022-09-02T17:01:49;24.00;69.40
3226;DHT22;1625;49.884;8.666;2022-09-02T17:04:14;24.00;68.90
3226;DHT22;1625;49.884;8.666;2022-09-02T17:06:43;24.00;68.40
3226;DHT22;1625;49.884;8.666;2022-09-02T17:09:08;24.00;69.40
3226;DHT22;1625;49.884;8.666;2022-09-02T17:11:35;24.00;69.90
3226;DHT22;1625;49.884;8.666;2022-09-02T17:14:12;24.00;68.80
3226;DHT22;1625;49.884;8.666;2022-09-02T17:17:12;23.90;71.10
3226;DHT22;1625;49.884;8.666;2022-09-02T17:19:54;23.90;70.40
3226;DHT22;1625;49.884;8.666;2022-09-02T17:22:44;23.80;69.80
3226;DHT22;1625;49.884;8.666;2022-09-02T17:25:22;23.70;70.50
3226;DHT22;1625;49.884;8.666;2022-09-02T17:27:53;23.70;70.60
3226;DHT22;1625;49.884;8.666;2022-09-02T17:30:19;23.70;69.70
3226;DHT22;1625;49.884;8.666;2022-09-02T17:32:50;23.60;69.30
3226;DHT22;1625;49.884;8.666;2022-09-02T17:35:28;23.60;68.50
3226;DHT22;1625;49.884;8.666;2022-09-02T17:38:05;23.50;69.10
3226;DHT22;1625;49.884;8.666;2022-09-02T17:40:46;23.40;69.40
3226;DHT22;1625;49.884;8.666;2022-09-02T17:43:33;23.40;70.40
3226;DHT22;1625;49.884;8.666;2022-09-02T17:46:06;23.30;70.50
3226;DHT22;1625;49.884;8.666;2022-09-02T17:48:41;23.20;70.10
3226;DHT22;1625;49.884;8.666;2022-09-02T17:51:19;23.20;70.10
3226;DHT22;1625;49.884;8.666;2022-09-02T17:53:47;23.20;70.60
3226;DHT22;1625;49.884;8.666;2022-09-02T17:56:33;23.10;70.30
3226;DHT22;1625;49.884;8.666;2022-09-02T18:02:29;22.90;70.20
3226;DHT22;1625;49.884;8.666;2022-09-02T18:05:08;22.90;70.70
3226;DHT22;1625;49.884;8.666;2022-09-02T18:07:56;22.80;71.00
3226;DHT22;1625;49.884;8.666;2022-09-02T18:10:35;22.70;71.00
3226;DHT22;1625;49.884;8.666;2022-09-02T18:13:04;22.60;70.90
3226;DHT22;1625;49.884;8.666;2022-09-02T18:15:41;22.50;71.10
3226;DHT22;1625;49.884;8.666;2022-09-02T18:18:09;22.40;71.20
3226;DHT22;1625;49.884;8.666;2022-09-02T18:20:41;22.40;71.90
3226;DHT22;1625;49.884;8.666;2022-09-02T18:37:09;22.00;72.70
3226;DHT22;1625;49.884;8.666;2022-09-02T18:45:28;21.90;73.10
3226;DHT22;1625;49.884;8.666;2022-09-02T18:48:00;21.70;73.70
3226;DHT22;1625;49.884;8.666;2022-09-02T18:50:34;21.70;74.10
3226;DHT22;1625;49.884;8.666;2022-09-02T18:53:05;21.60;74.00
3226;DHT22;1625;49.884;8.666;2022-09-02T18:55:37;21.50;73.70
3226;DHT22;1625;49.884;8.666;2022-09-02T18:58:29;21.50;74.00
3226;DHT22;1625;49.884;8.666;2022-09-02T19:01:21;21.50;74.10
3226;DHT22;1625;49.884;8.666;2022-09-02T19:03:48;21.50;74.50
3226;DHT22;1625;49.884;8.666;2022-09-02T19:06:20;21.40;74.70
3226;DHT22;1625;49.884;8.666;2022-09-02T19:08:48;21.40;75.10
3226;DHT22;1625;49.884;8.666;2022-09-02T19:11:18;21.40;75.50
3226;DHT22;1625;49.884;8.666;2022-09-02T19:16:13;21.30;75.30
3226;DHT22;1625;49.884;8.666;2022-09-02T19:18:39;21.20;75.10
3226;DHT22;1625;49.884;8.666;2022-09-02T19:21:05;21.20;75.80
3226;DHT22;1625;49.884;8.666;2022-09-02T19:23:31;21.10;75.80
3226;DHT22;1625;49.884;8.666;2022-09-02T19:25:56;21.10;75.90
3226;DHT22;1625;49.884;8.666;2022-09-02T19:28:24;21.10;76.00
3226;DHT22;1625;49.884;8.666;2022-09-02T19:30:52;21.00;75.50
3226;DHT22;1625;49.884;8.666;2022-09-02T19:33:21;21.00;76.10
3226;DHT22;1625;49.884;8.666;2022-09-02T19:35:48;21.00;76.00
3226;DHT22;1625;49.884;8.666;2022-09-02T19:38:15;21.00;76.70
3226;DHT22;1625;49.884;8.666;2022-09-02T19:40:43;21.00;76.60
3226;DHT22;1625;49.884;8.666;2022-09-02T19:43:09;20.90;76.80
3226;DHT22;1625;49.884;8.666;2022-09-02T19:45:37;20.70;76.30
3226;DHT22;1625;49.884;8.666;2022-09-02T19:48:04;20.80;77.20
3226;DHT22;1625;49.884;8.666;2022-09-02T19:50:31;20.80;77.30
3226;DHT22;1625;49.884;8.666;2022-09-02T19:52:57;20.70;77.60
3226;DHT22;1625;49.884;8.666;2022-09-02T19:55:22;21.00;77.80
3226;DHT22;1625;49.884;8.666;2022-09-02T19:57:48;21.10;77.90
3226;DHT22;1625;49.884;8.666;2022-09-02T20:00:15;20.60;77.70
3226;DHT22;1625;49.884;8.666;2022-09-02T20:02:41;20.60;78.60
3226;DHT22;1625;49.884;8.666;2022-09-02T20:05:11;20.60;78.40
3226;DHT22;1625;49.884;8.666;2022-09-02T20:07:37;20.50;78.50
3226;DHT22;1625;49.884;8.666;2022-09-02T20:10:04;21.20;79.20
3226;DHT22;1625;49.884;8.666;2022-09-02T20:12:30;20.40;78.80
3226;DHT22;1625;49.884;8.666;2022-09-02T20:14:57;20.40;78.90
3226;DHT22;1625;49.884;8.666;2022-09-02T20:17:25;20.40;79.10
3226;DHT22;1625;49.884;8.666;2022-09-02T20:19:54;20.30;79.20
3226;DHT22;1625;49.884;8.666;2022-09-02T20:22:20;20.30;79.10
3226;DHT22;1625;49.884;8.666;2022-09-02T22:13:23;19.10;85.30
3226;DHT22;1625;49.884;8.666;2022-09-02T22:18:40;19.10;85.10
3226;DHT22;1625;49.884;8.666;2022-09-02T22:21:22;19.10;85.00
3226;DHT22;1625;49.884;8.666;2022-09-02T22:23:50;19.10;85.10
3226;DHT22;1625;49.884;8.666;2022-09-02T22:28:47;19.00;85.30
3226;DHT22;1625;49.884;8.666;2022-09-02T22:31:18;19.00;85.20
3226;DHT22;1625;49.884;8.666;2022-09-02T22:33:49;19.00;85.50
3226;DHT22;1625;49.884;8.666;2022-09-02T22:36:41;19.00;85.20
3226;DHT22;1625;49.884;8.666;2022-09-02T22:39:09;19.00;85.40
3226;DHT22;1625;49.884;8.666;2022-09-02T22:41:51;19.00;85.80
3226;DHT22;1625;49.884;8.666;2022-09-02T22:47:32;19.00;85.80
3226;DHT22;1625;49.884;8.666;2022-09-02T22:50:24;19.00;85.70
3226;DHT22;1625;49.884;8.666;2022-09-02T22:53:09;19.00;85.80
3226;DHT22;1625;49.884;8.666;2022-09-02T22:55:53;18.90;86.10
3226;DHT22;1625;49.884;8.666;2022-09-02T22:59:20;18.90;86.10
3226;DHT22;1625;49.884;8.666;2022-09-02T23:01:27;18.90;85.90
3226;DHT22;1625;49.884;8.666;2022-09-02T23:06:45;18.90;86.30
3226;DHT22;1625;49.884;8.666;2022-09-02T23:09:11;18.90;86.20
3226;DHT22;1625;49.884;8.666;2022-09-02T23:14:46;18.80;86.40
3226;DHT22;1625;49.884;8.666;2022-09-02T23:17:51;18.80;87.00
3226;DHT22;1625;49.884;8.666;2022-09-02T23:20:51;18.80;86.70
3226;DHT22;1625;49.884;8.666;2022-09-02T23:29:08;18.80;87.10
3226;DHT22;1625;49.884;8.666;2022-09-02T23:43:05;18.60;87.80
3226;DHT22;1625;49.884;8.666;2022-09-02T23:45:32;18.60;87.80
3226;DHT22;1625;49.884;8.666;2022-09-02T23:48:20;18.60;87.90
3226;DHT22;1625;49.884;8.666;2022-09-02T23:51:15;18.60;87.90
3226;DHT22;1625;49.884;8.666;2022-09-02T23:54:04;18.60;88.40
3226;DHT22;1625;49.884;8.666;2022-09-02T23:56:59;18.60;88.20
3226;DHT22;1625;49.884;8.666;2022-09-02T23:59:42;18.60;88.20
